createdAt,value
2019-01-29T00:00:07.859Z,90.64
2019-01-29T00:03:11.438Z,90.65
2019-01-29T00:06:15.038Z,90.01
2019-01-29T00:09:18.653Z,89.20
2019-01-29T00:12:22.227Z,89.47
2019-01-29T00:15:25.834Z,89.35
2019-01-29T00:18:29.440Z,87.94
2019-01-29T00:21:33.022Z,88.58
2019-01-29T00:24:36.623Z,88.16
2019-01-29T00:27:40.183Z,88.40
2019-01-29T00:30:43.700Z,88.38
2019-01-29T00:33:47.163Z,87.78
2019-01-29T00:36:50.796Z,88.30
2019-01-29T00:39:54.344Z,88.37
2019-01-29T00:42:57.874Z,87.42
2019-01-29T00:46:01.480Z,87.22
2019-01-29T00:49:05.079Z,87.53
2019-01-29T00:52:08.622Z,87.86
2019-01-29T00:55:12.672Z,88.13
2019-01-29T00:58:16.206Z,88.05
2019-01-29T01:01:19.840Z,88.72
2019-01-29T01:04:23.401Z,88.35
2019-01-29T01:07:26.930Z,88.71
2019-01-29T01:10:30.471Z,89.20
2019-01-29T01:13:34.075Z,89.54
2019-01-29T01:16:41.783Z,89.31
2019-01-29T01:19:45.254Z,89.04
2019-01-29T01:22:51.252Z,89.56
2019-01-29T01:25:52.409Z,89.21
2019-01-29T01:28:56.028Z,88.92
2019-01-29T01:31:59.603Z,89.78
2019-01-29T01:35:03.209Z,89.24
2019-01-29T01:38:06.736Z,88.79
2019-01-29T01:41:10.372Z,89.52
2019-01-29T01:44:13.877Z,89.39
2019-01-29T01:47:17.502Z,89.46
2019-01-29T01:50:21.063Z,89.57
2019-01-29T01:53:24.604Z,89.25
2019-01-29T01:56:28.139Z,90.11
2019-01-29T01:59:31.635Z,90.00
2019-01-29T02:02:35.123Z,90.37
2019-01-29T02:05:38.720Z,90.27
2019-01-29T02:08:42.370Z,90.55
2019-01-29T02:11:45.856Z,90.80
2019-01-29T02:14:49.427Z,90.42
2019-01-29T02:17:53.070Z,90.79
2019-01-29T02:20:56.768Z,90.97
2019-01-29T02:24:00.408Z,90.59
2019-01-29T02:27:04.180Z,90.73
2019-01-29T02:30:11.346Z,91.49
2019-01-29T02:33:14.998Z,91.63
2019-01-29T02:36:18.523Z,92.16
2019-01-29T02:39:22.211Z,91.44
2019-01-29T02:42:25.905Z,91.31
2019-01-29T02:45:29.439Z,91.42
2019-01-29T02:48:33.091Z,92.04
2019-01-29T02:51:36.717Z,92.01
2019-01-29T02:54:40.293Z,92.00
2019-01-29T02:57:44.034Z,92.44
2019-01-29T03:00:47.822Z,92.05
2019-01-29T03:03:51.470Z,91.09
2019-01-29T03:06:55.136Z,91.71
2019-01-29T03:09:58.662Z,91.80
2019-01-29T03:13:02.263Z,91.44
2019-01-29T03:16:05.881Z,91.51
2019-01-29T03:19:09.391Z,91.87
2019-01-29T03:22:13.061Z,91.35
2019-01-29T03:25:16.712Z,91.59
2019-01-29T03:28:20.485Z,91.78
2019-01-29T03:31:24.158Z,91.77
2019-01-29T03:34:27.742Z,91.58
2019-01-29T03:37:31.394Z,91.46
2019-01-29T03:40:35.091Z,91.45
2019-01-29T03:43:38.717Z,91.90
2019-01-29T03:46:42.405Z,91.89
2019-01-29T03:49:45.904Z,91.97
2019-01-29T03:52:49.645Z,92.60
2019-01-29T03:55:53.275Z,92.94
2019-01-29T03:58:56.917Z,92.87
2019-01-29T04:02:00.605Z,93.24
2019-01-29T04:05:04.738Z,93.38
2019-01-29T04:08:08.369Z,92.94
2019-01-29T04:11:12.005Z,92.46
2019-01-29T04:14:15.607Z,93.08
2019-01-29T04:17:19.329Z,92.74
2019-01-29T04:20:22.875Z,92.75
2019-01-29T04:23:26.455Z,92.66
2019-01-29T04:26:30.080Z,93.01
2019-01-29T04:29:33.732Z,92.75
2019-01-29T04:32:37.288Z,92.93
2019-01-29T04:35:40.989Z,93.45
2019-01-29T04:38:44.513Z,93.13
2019-01-29T04:41:48.094Z,93.85
2019-01-29T04:44:51.710Z,94.06
2019-01-29T04:47:55.410Z,94.11
2019-01-29T04:50:59.001Z,94.72
2019-01-29T04:54:02.618Z,94.76
2019-01-29T04:57:06.277Z,93.82
2019-01-29T05:00:12.950Z,93.75
2019-01-29T05:03:16.481Z,94.41
2019-01-29T05:06:20.012Z,94.12
2019-01-29T05:09:23.538Z,95.11
2019-01-29T05:12:27.127Z,94.58
2019-01-29T05:15:30.776Z,94.85
2019-01-29T05:18:34.347Z,94.75
2019-01-29T05:21:38.003Z,94.61
2019-01-29T05:24:41.569Z,94.78
2019-01-29T05:27:45.095Z,94.61
2019-01-29T05:30:50.736Z,95.10
2019-01-29T05:33:54.285Z,94.46
2019-01-29T05:36:57.939Z,95.08
2019-01-29T05:40:01.521Z,95.25
2019-01-29T05:43:05.133Z,94.99
2019-01-29T05:46:08.763Z,95.01
2019-01-29T05:49:12.353Z,94.48
2019-01-29T05:52:15.989Z,94.37
2019-01-29T05:55:19.577Z,94.21
2019-01-29T05:58:23.169Z,94.10
2019-01-29T06:01:26.824Z,94.26
2019-01-29T06:04:30.379Z,94.63
2019-01-29T06:07:33.996Z,95.73
2019-01-29T06:10:37.634Z,95.33
2019-01-29T06:13:41.187Z,94.92
2019-01-29T06:16:44.726Z,93.43
2019-01-29T06:19:48.281Z,93.05
2019-01-29T06:22:52.002Z,92.51
2019-01-29T06:25:55.587Z,92.85
2019-01-29T06:28:59.258Z,93.16
2019-01-29T06:32:02.818Z,92.50
2019-01-29T06:35:08.324Z,92.59
2019-01-29T06:38:11.914Z,92.84
2019-01-29T06:41:15.490Z,93.23
2019-01-29T06:44:19.021Z,92.57
2019-01-29T06:47:22.554Z,92.76
2019-01-29T06:50:26.692Z,91.80
2019-01-29T06:53:30.322Z,92.56
2019-01-29T06:56:33.889Z,92.80
2019-01-29T06:59:37.391Z,92.32
2019-01-29T07:02:40.955Z,92.36
2019-01-29T07:05:44.516Z,92.32
2019-01-29T07:08:48.049Z,92.34
2019-01-29T07:11:59.098Z,91.63
2019-01-29T07:15:02.737Z,92.10
2019-01-29T07:18:10.519Z,92.82
2019-01-29T07:21:14.092Z,92.91
2019-01-29T07:24:17.606Z,92.27
2019-01-29T07:27:21.113Z,92.01
2019-01-29T07:30:24.718Z,91.98
2019-01-29T07:33:28.169Z,91.91
2019-01-29T07:36:31.758Z,91.25
2019-01-29T07:39:35.335Z,91.19
2019-01-29T07:42:38.793Z,91.58
2019-01-29T07:45:42.351Z,91.80
2019-01-29T07:48:46.033Z,91.98
2019-01-29T07:51:49.701Z,92.18
2019-01-29T07:54:53.331Z,93.10
2019-01-29T07:57:56.802Z,92.01
2019-01-29T08:01:00.593Z,91.71
2019-01-29T08:04:04.424Z,91.70
2019-01-29T08:07:08.077Z,92.44
2019-01-29T08:10:11.964Z,92.85
2019-01-29T08:13:16.682Z,93.03
2019-01-29T08:16:20.426Z,93.56
2019-01-29T08:19:24.056Z,93.69
2019-01-29T08:22:27.758Z,94.00
2019-01-29T08:25:31.467Z,93.45
2019-01-29T08:28:35.158Z,93.69
2019-01-29T08:31:38.887Z,93.03
2019-01-29T08:34:42.590Z,92.83
2019-01-29T08:37:46.262Z,93.11
2019-01-29T08:40:49.917Z,93.54
2019-01-29T08:43:53.580Z,93.43
2019-01-29T08:46:57.287Z,92.54
2019-01-29T08:50:00.963Z,92.90
2019-01-29T08:53:04.720Z,92.06
2019-01-29T08:56:08.364Z,92.38
2019-01-29T08:59:12.039Z,92.31
2019-01-29T09:02:15.646Z,91.76
2019-01-29T09:05:19.297Z,92.36
2019-01-29T09:08:22.934Z,91.95
2019-01-29T09:11:26.557Z,91.76
2019-01-29T09:14:30.160Z,91.32
2019-01-29T09:17:33.786Z,91.56
2019-01-29T09:20:37.373Z,89.42
2019-01-29T09:23:40.960Z,88.72
2019-01-29T09:26:44.568Z,87.71
2019-01-29T09:29:48.176Z,87.95
2019-01-29T09:32:51.857Z,86.72
2019-01-29T09:35:55.492Z,87.23
2019-01-29T09:38:59.058Z,86.66
2019-01-29T09:42:02.705Z,86.74
2019-01-29T09:45:06.991Z,86.92
2019-01-29T09:48:10.615Z,86.72
2019-01-29T09:51:14.222Z,86.55
2019-01-29T09:54:17.835Z,85.98
2019-01-29T09:57:21.546Z,85.19
2019-01-29T10:00:28.442Z,84.87
2019-01-29T10:03:32.062Z,84.45
2019-01-29T10:06:35.609Z,85.23
2019-01-29T10:09:39.270Z,83.94
2019-01-29T10:12:42.808Z,84.86
2019-01-29T10:15:46.510Z,83.97
2019-01-29T10:18:50.258Z,83.62
2019-01-29T10:21:54.011Z,83.26
2019-01-29T10:24:57.657Z,82.50
2019-01-29T10:28:01.394Z,82.63
2019-01-29T10:31:04.995Z,82.22
2019-01-29T10:34:08.609Z,82.48
2019-01-29T10:37:13.220Z,83.69
2019-01-29T10:40:21.579Z,83.27
2019-01-29T10:43:25.074Z,83.14
2019-01-29T10:46:28.613Z,82.99
2019-01-29T10:49:32.201Z,81.99
2019-01-29T10:52:37.537Z,79.51
2019-01-29T10:55:47.437Z,79.30
2019-01-29T10:58:45.726Z,79.72
2019-01-29T11:01:49.479Z,79.37
2019-01-29T11:04:54.183Z,80.16
2019-01-29T11:08:00.031Z,80.68
2019-01-29T11:11:04.513Z,79.34
2019-01-29T11:14:08.166Z,78.45
2019-01-29T11:17:11.811Z,80.21
2019-01-29T11:20:15.640Z,78.59
2019-01-29T11:23:19.259Z,79.51
2019-01-29T11:26:22.888Z,79.84
2019-01-29T11:29:26.802Z,81.02
2019-01-29T11:32:30.551Z,81.04
2019-01-29T11:35:34.278Z,79.89
2019-01-29T11:38:38.481Z,80.04
2019-01-29T11:41:42.045Z,79.07
2019-01-29T11:44:46.070Z,78.79
2019-01-29T11:47:49.702Z,77.42
2019-01-29T11:50:53.300Z,77.71
2019-01-29T11:53:56.927Z,77.12
2019-01-29T11:57:00.561Z,76.29
2019-01-29T12:00:04.353Z,76.59
2019-01-29T12:03:07.929Z,74.93
2019-01-29T12:06:11.535Z,73.01
2019-01-29T12:09:15.132Z,72.23
2019-01-29T12:12:18.775Z,71.40
2019-01-29T12:15:22.394Z,71.60
2019-01-29T12:18:26.109Z,72.85
2019-01-29T12:21:29.819Z,72.52
2019-01-29T12:24:33.450Z,71.39
2019-01-29T12:27:37.081Z,71.84
2019-01-29T12:30:40.731Z,69.93
2019-01-29T12:33:44.330Z,67.47
2019-01-29T12:36:48.148Z,64.74
2019-01-29T12:39:51.696Z,64.56
2019-01-29T12:42:55.271Z,65.24
2019-01-29T12:45:58.911Z,64.95
2019-01-29T12:49:02.655Z,65.02
2019-01-29T12:52:10.707Z,66.70
2019-01-29T12:55:14.384Z,66.69
2019-01-29T12:58:17.914Z,68.45
2019-01-29T13:01:21.647Z,68.16
2019-01-29T13:04:25.408Z,68.25
2019-01-29T13:07:29.126Z,67.89
2019-01-29T13:10:32.699Z,67.80
2019-01-29T13:13:36.445Z,67.18
2019-01-29T13:16:40.317Z,66.75
2019-01-29T13:19:43.945Z,63.28
2019-01-29T13:22:49.489Z,64.37
2019-01-29T13:25:53.272Z,62.72
2019-01-29T13:28:56.946Z,63.26
2019-01-29T13:32:00.484Z,62.80
2019-01-29T13:35:04.306Z,61.63
2019-01-29T13:38:08.697Z,60.90
2019-01-29T13:41:12.866Z,61.12
2019-01-29T13:44:16.555Z,60.06
2019-01-29T13:47:21.405Z,58.25
2019-01-29T13:50:29.496Z,57.78
2019-01-29T13:53:33.232Z,58.03
2019-01-29T13:56:39.031Z,58.38
2019-01-29T13:59:40.649Z,58.66
2019-01-29T14:02:44.870Z,58.62
2019-01-29T14:05:48.570Z,56.71
2019-01-29T14:08:53.657Z,56.06
2019-01-29T14:11:55.908Z,54.49
2019-01-29T14:15:00.518Z,55.27
2019-01-29T14:18:04.254Z,54.68
2019-01-29T14:21:07.842Z,54.08
2019-01-29T14:24:11.630Z,51.55
2019-01-29T14:27:16.289Z,53.09
2019-01-29T14:30:20.254Z,52.31
2019-01-29T14:33:24.305Z,52.43
2019-01-29T14:36:28.077Z,51.05
2019-01-29T14:39:43.274Z,51.62
2019-01-29T14:42:48.574Z,52.79
2019-01-29T14:45:52.195Z,53.83
2019-01-29T14:48:56.475Z,52.34
2019-01-29T14:52:01.158Z,53.77
2019-01-29T14:55:06.166Z,52.56
2019-01-29T14:58:10.117Z,53.40
2019-01-29T15:01:14.021Z,53.59
2019-01-29T15:04:17.684Z,54.63
2019-01-29T15:07:29.877Z,53.52
2019-01-29T15:10:25.548Z,52.41
2019-01-29T15:13:29.218Z,52.90
2019-01-29T15:17:10.188Z,53.89
2019-01-29T15:20:13.957Z,54.34
2019-01-29T15:23:17.562Z,54.04
2019-01-29T15:26:21.141Z,54.42
2019-01-29T15:29:24.819Z,55.25
2019-01-29T15:32:35.857Z,55.34
2019-01-29T15:35:38.800Z,55.55
2019-01-29T15:38:42.418Z,55.95
2019-01-29T15:41:46.078Z,55.23
2019-01-29T15:44:49.699Z,54.80
2019-01-29T15:47:53.249Z,54.88
2019-01-29T15:50:57.033Z,55.67
2019-01-29T15:54:01.272Z,55.37
2019-01-29T15:57:13.870Z,56.16
2019-01-29T16:00:12.728Z,56.16
2019-01-29T16:03:17.316Z,56.53
2019-01-29T16:06:20.954Z,54.53
2019-01-29T16:09:24.720Z,55.33
2019-01-29T16:12:28.349Z,55.33
2019-01-29T16:15:31.902Z,55.91
2019-01-29T16:18:35.553Z,56.10
2019-01-29T16:21:39.160Z,56.13
2019-01-29T16:24:43.402Z,56.60
2019-01-29T16:27:47.195Z,56.29
2019-01-29T16:30:50.877Z,56.38
2019-01-29T16:33:54.591Z,57.15
2019-01-29T16:36:58.159Z,58.11
2019-01-29T16:40:01.725Z,58.76
2019-01-29T16:43:05.926Z,59.57
2019-01-29T16:46:10.115Z,60.28
2019-01-29T16:49:14.060Z,61.46
2019-01-29T16:52:17.659Z,63.12
2019-01-29T16:55:21.932Z,64.79
2019-01-29T16:58:26.191Z,66.54
2019-01-29T17:01:31.842Z,69.00
2019-01-29T17:04:35.563Z,70.71
2019-01-29T17:07:39.168Z,72.15
2019-01-29T17:10:42.781Z,74.14
2019-01-29T17:13:46.859Z,74.71
2019-01-29T17:16:50.844Z,75.00
2019-01-29T17:23:25.972Z,78.53
2019-01-29T17:26:31.100Z,78.47
2019-01-29T17:29:33.450Z,78.54
2019-01-29T17:32:37.096Z,79.82
2019-01-29T17:35:41.049Z,80.06
2019-01-29T17:38:51.697Z,79.69
2019-01-29T17:41:55.538Z,80.81
2019-01-29T17:44:59.270Z,80.22
2019-01-29T17:48:03.087Z,81.62
2019-01-29T17:51:06.943Z,82.30
2019-01-29T17:54:10.658Z,82.00
2019-01-29T17:57:14.675Z,81.92
2019-01-29T18:00:20.526Z,83.49
2019-01-29T18:03:24.453Z,83.37
2019-01-29T18:06:28.050Z,83.91
2019-01-29T18:09:31.640Z,82.94
2019-01-29T18:12:35.290Z,83.48
2019-01-29T18:15:39.997Z,83.62
2019-01-29T18:18:43.549Z,84.72
2019-01-29T18:21:56.252Z,84.50
2019-01-29T18:24:50.852Z,84.63
2019-01-29T18:28:00.885Z,84.59
2019-01-29T18:30:57.965Z,84.52
2019-01-29T18:34:01.685Z,83.89
2019-01-29T18:37:05.263Z,84.45
2019-01-29T18:40:10.940Z,84.08
2019-01-29T18:43:14.580Z,85.54
2019-01-29T18:46:19.335Z,85.03
2019-01-29T18:49:24.306Z,85.12
2019-01-29T18:52:28.782Z,84.51
2019-01-29T18:55:32.460Z,84.87
2019-01-29T18:58:36.313Z,85.60
2019-01-29T19:01:40.099Z,84.93
2019-01-29T19:04:43.638Z,86.11
2019-01-29T19:07:47.215Z,85.56
2019-01-29T19:10:53.873Z,85.07
2019-01-29T19:13:58.646Z,85.75
2019-01-29T19:17:02.552Z,84.83
2019-01-29T19:20:06.626Z,85.06
2019-01-29T19:23:10.192Z,85.03
2019-01-29T19:26:13.835Z,85.15
2019-01-29T19:29:17.439Z,85.49
2019-01-29T19:32:21.098Z,86.15
2019-01-29T19:35:25.789Z,85.17
2019-01-29T19:38:29.442Z,85.10
2019-01-29T19:41:33.200Z,85.08
2019-01-29T19:44:36.873Z,85.17
2019-01-29T19:47:40.587Z,85.65
2019-01-29T19:50:44.266Z,85.45
2019-01-29T19:53:53.184Z,85.37
2019-01-29T19:56:56.850Z,85.46
2019-01-29T20:00:00.479Z,85.66
2019-01-29T20:03:04.122Z,86.53
2019-01-29T20:06:07.835Z,85.85
2019-01-29T20:09:14.779Z,86.61
2019-01-29T20:12:18.378Z,86.73
2019-01-29T20:15:22.463Z,86.78
2019-01-29T20:18:26.506Z,86.43
2019-01-29T20:21:32.070Z,85.15
2019-01-29T20:24:38.365Z,86.10
2019-01-29T20:27:41.855Z,87.01
2019-01-29T20:30:45.425Z,85.97
2019-01-29T20:33:49.252Z,86.66
2019-01-29T20:36:53.213Z,86.58
2019-01-29T20:39:57.215Z,85.82
2019-01-29T20:43:01.738Z,86.43
2019-01-29T20:46:06.210Z,85.52
2019-01-29T20:49:10.287Z,86.14
2019-01-29T20:52:13.813Z,85.48
2019-01-29T20:55:17.407Z,86.28
2019-01-29T20:58:21.074Z,86.56
2019-01-29T21:01:24.651Z,86.32
2019-01-29T21:04:28.560Z,85.68
2019-01-29T21:07:32.098Z,86.02
2019-01-29T21:10:35.773Z,85.09
2019-01-29T21:13:39.378Z,85.85
2019-01-29T21:16:42.882Z,85.58
2019-01-29T21:19:46.540Z,86.12
2019-01-29T21:22:50.056Z,86.14
2019-01-29T21:25:53.597Z,86.35
2019-01-29T21:29:03.098Z,86.09
2019-01-29T21:32:00.748Z,86.58
2019-01-29T21:35:04.498Z,86.30
2019-01-29T21:38:08.175Z,86.07
2019-01-29T21:41:11.701Z,86.22
2019-01-29T21:44:15.314Z,86.95
2019-01-29T21:47:19.814Z,86.62
2019-01-29T21:50:26.132Z,86.62
2019-01-29T21:53:29.726Z,86.48
2019-01-29T21:56:33.276Z,85.62
2019-01-29T21:59:36.789Z,85.55
2019-01-29T22:02:40.350Z,86.23
2019-01-29T22:05:43.939Z,86.39
2019-01-29T22:12:17.865Z,86.49
2019-01-29T22:15:22.415Z,85.57
2019-01-29T22:18:25.984Z,85.79
2019-01-29T22:21:29.496Z,85.63
2019-01-29T22:24:33.072Z,85.31
2019-01-29T22:27:36.689Z,85.98
2019-01-29T22:30:41.686Z,84.91
2019-01-29T22:33:45.235Z,85.36
2019-01-29T22:36:48.885Z,84.83
2019-01-29T22:39:52.474Z,85.84
2019-01-29T22:42:56.841Z,85.40
2019-01-29T22:46:00.403Z,84.71
2019-01-29T22:49:04.082Z,84.50
2019-01-29T22:52:07.643Z,84.82
2019-01-29T22:55:11.320Z,84.57
2019-01-29T22:58:14.946Z,84.33
2019-01-29T23:01:25.942Z,84.26
2019-01-29T23:04:33.120Z,84.16
2019-01-29T23:07:38.491Z,84.15
2019-01-29T23:10:42.070Z,84.20
2019-01-29T23:13:45.709Z,83.21
2019-01-29T23:16:49.232Z,83.17
2019-01-29T23:19:52.805Z,83.83
2019-01-29T23:22:56.375Z,83.96
2019-01-29T23:25:59.941Z,83.62
2019-01-29T23:29:03.490Z,83.64
2019-01-29T23:32:07.203Z,83.16
2019-01-29T23:35:10.860Z,83.13
2019-01-29T23:38:14.403Z,83.12
2019-01-29T23:41:17.997Z,82.44
2019-01-29T23:44:21.605Z,82.66
2019-01-29T23:47:25.209Z,82.37
2019-01-29T23:50:30.023Z,82.10
2019-01-29T23:53:33.735Z,81.68
2019-01-29T23:56:37.170Z,82.08
2019-01-29T23:59:40.703Z,82.08
